Airfield :
LOGIN :

Register | Disclaimer

   EN    FR    IT 

 










Legend :    VFR   Marginal VFR   IFR   Intensive IFR   Very Intensive IFR
Visi :
Ceiling :
>= 8 km
>= 3000ft
5 to 8 km
1000 to 3000 ft
1500m to 5 km
500 to 1000 ft
800 to 1500m
200 to 500 ft
< 800m
< 200 ft
Symbols :   Thunderstorms  Fog  Heavy snow  Heavy precipitations  Wind > 20 kt
SIGMETs :     Misc.  Thunderstorms  Icing  Turbulence  Mountain Waves  Volcanic Ashes






- Airport Elevation : 2661 ft
- IATA code : TEE


DABS - Cheikh Larbi Tebessi

CURRENT METAR :
  • 221400Z 14010KT 9999 FEW033 15/02 Q1023

EXPIRED METARs :
  • 221300Z 12016KT 9999 FEW033 15/02 Q1024
  • 221200Z 12020KT 9999 FEW033 14/02 Q1025

TAF TAF DABS
Valid from the 22 at 12:00 until the 23 at 12:00 UTC


221100Z 2212/2312 14014KT 9999 FEW030
TEMPO 2212/2218 13015G30KT 4000 DRDU NSC
PROB40
TEMPO 2218/2303 15020G35KT



MET'MAP, your aeronautical weather chart ! - Copyright ORBIFLY December 2007 - Disclaimer

ORBIFLY MET'MAP TEAM :

Programming & Development : Alexandra Zaïnal
Concept & original design : Baudouin d'Aumeries
Assistance for programming : Marc-Olivier Méhu
Technical & hardware support : Manuel Goepfert

Contact : metmap@orbifly.com




SOURCES & CREDITS :

   NOAA